Port Stanley — V7EE9 — position and weather

sailwx.info

Track history (hours):
 
Tides and Currents Weather Stations Pressure Air Temp Water Temp Dewpoint Dewpoint Depression Visibility Wind Speed Wind Dir Waves Ship Positions

Port Stanley

Last reported at 2015-Aug-31 11:33 UTC. Time now 2015-Sep-02 12:52 UTC.
Position N 01°16' E 104°09'.

Length 183 m; draft 8.4 m.

MMSI: 538090299.

Date/timePositionNaut miles runAvg speedWind from/ knotsBaromVisibWave heightAir tempDewpointWater temp
2015-Aug-31 11:33N 01°16' E 104°09'1211.6
2015-Aug-31 10:33N 01°14' E 103°57'8 8.3
2015-Aug-31 09:33N 01°13' E 103°49'2 1.6
2015-Aug-31 08:30N 01°14' E 103°48'0 0.1
2015-Aug-31 07:30N 01°14' E 103°48'0 0.1
2015-Aug-31 06:30N 01°14' E 103°48'0 0.1
2015-Aug-31 05:30N 01°14' E 103°48'0 0.0
2015-Aug-31 04:30N 01°14' E 103°48'0 0.0
2015-Aug-31 03:30N 01°14' E 103°48'0 0.0
2015-Aug-31 02:30N 01°14' E 103°48'0 0.0
2015-Aug-31 01:30N 01°14' E 103°48'0 0.1
2015-Aug-31 00:30N 01°14' E 103°48'0 0.1
2015-Aug-30 23:30N 01°14' E 103°48'0 0.0
2015-Aug-30 22:18N 01°14' E 103°48'0 0.0
2015-Aug-30 21:30N 01°14' E 103°48'0 0.0
2015-Aug-30 20:34N 01°14' E 103°48'2 1.8
2015-Aug-30 19:33N 01°15' E 103°46'8 7.4
2015-Aug-30 18:32N 01°16' E 103°39'3 3.2
2015-Aug-30 17:32N 01°18' E 103°41'0 0.0
2015-Aug-30 16:07N 01°18' E 103°41'0 0.0
2015-Aug-30 15:33N 01°18' E 103°41'0 0.0
2015-Aug-30 14:09N 01°18' E 103°41'0 0.0
2015-Aug-30 13:31N 01°18' E 103°41'0 0.0
2015-Aug-30 12:16N 01°18' E 103°41'0 0.0
2015-Aug-30 11:25N 01°18' E 103°41'0 0.0
2015-Aug-30 10:19N 01°18' E 103°41'0 0.0
2015-Aug-30 09:22N 01°18' E 103°41'0 0.0
2015-Aug-30 08:32N 01°18' E 103°41'0 0.0
2015-Aug-30 07:31N 01°18' E 103°41'0 0.0
2015-Aug-30 06:27N 01°18' E 103°41'0 0.0
2015-Aug-30 04:21N 01°18' E 103°41'0 0.0
2015-Aug-29 20:33N 01°18' E 103°41'0 0.0
2015-Aug-29 09:33N 01°18' E 103°41'3 3.4
2015-Aug-29 08:33N 01°15' E 103°43'6 5.9
2015-Aug-29 07:33N 01°13' E 103°49'0 0.1
2015-Aug-29 06:33N 01°13' E 103°49'0 0.1
2015-Aug-29 05:16N 01°13' E 103°49'0 0.0
2015-Aug-29 04:30N 01°13' E 103°49'0 0.1
2015-Aug-29 03:18N 01°13' E 103°49'0 0.1
2015-Aug-29 02:28N 01°13' E 103°49'0 0.1
2015-Aug-29 01:30N 01°13' E 103°49'0 0.1
2015-Aug-29 00:28N 01°13' E 103°49'0 0.1
2015-Aug-28 23:17N 01°13' E 103°49'0 0.1
2015-Aug-28 22:29N 01°13' E 103°49'0 0.0
2015-Aug-28 21:29N 01°13' E 103°49'0 0.1
2015-Aug-28 20:29N 01°13' E 103°49'0 0.1
2015-Aug-28 19:25N 01°13' E 103°49'0 0.0
2015-Aug-28 18:29N 01°13' E 103°49'0 0.1
2015-Aug-28 17:31N 01°13' E 103°49'0 0.1
2015-Aug-28 16:11N 01°13' E 103°49'0 0.1
2015-Aug-28 15:19N 01°13' E 103°49'0 0.0
2015-Aug-28 14:29N 01°13' E 103°49'0 0.1
2015-Aug-28 13:29N 01°13' E 103°49'0 0.1
2015-Aug-28 12:31N 01°13' E 103°49'0 0.1
2015-Aug-28 11:31N 01°13' E 103°49'0 0.1
2015-Aug-28 10:31N 01°13' E 103°49'0 0.1
2015-Aug-28 09:23N 01°13' E 103°49'0 0.0
2015-Aug-28 08:29N 01°13' E 103°49'0 0.0
2015-Aug-28 07:31N 01°13' E 103°49'0 0.0
2015-Aug-28 06:17N 01°13' E 103°49'0 0.1
2015-Aug-28 05:31N 01°13' E 103°49'0 0.0
2015-Aug-28 04:29N 01°13' E 103°49'0 0.1
2015-Aug-28 03:23N 01°13' E 103°49'0 0.1
2015-Aug-28 02:29N 01°13' E 103°49'0 0.1
2015-Aug-28 01:17N 01°13' E 103°49'0 0.1
2015-Aug-28 00:26N 01°13' E 103°49'0 0.1
2015-Aug-27 23:29N 01°13' E 103°49'0 0.1
2015-Aug-27 22:23N 01°13' E 103°49'0 0.1
2015-Aug-27 21:32N 01°13' E 103°49'0 0.0
2015-Aug-27 20:29N 01°13' E 103°49'0 0.0
2015-Aug-27 19:32N 01°13' E 103°49'0 0.0
2015-Aug-27 18:29N 01°13' E 103°49'0 0.1
2015-Aug-27 17:29N 01°13' E 103°49'0 0.0
2015-Aug-27 16:29N 01°13' E 103°49'0 0.0
2015-Aug-27 15:32N 01°13' E 103°49'0 0.2
2015-Aug-27 14:32N 01°13' E 103°49'0 0.1
2015-Aug-27 13:32N 01°13' E 103°49'0 0.1
2015-Aug-27 12:29N 01°13' E 103°49'0 0.1
2015-Aug-27 11:33N 01°13' E 103°49'0 0.0
2015-Aug-27 10:29N 01°13' E 103°49'0 0.0
2015-Aug-27 09:29N 01°13' E 103°49'0 0.1
2015-Aug-27 08:29N 01°13' E 103°49'0 0.0
2015-Aug-27 07:29N 01°13' E 103°49'0 0.1
2015-Aug-27 06:29N 01°13' E 103°49'0 0.0
2015-Aug-27 05:21N 01°13' E 103°49'0 0.1
2015-Aug-27 04:17N 01°13' E 103°49'0 0.2
2015-Aug-27 03:29N 01°13' E 103°49'0 0.0
2015-Aug-26 22:30N 01°13' E 103°49'0 0.1
2015-Aug-26 20:15N 01°13' E 103°49'0 0.0
2015-Aug-26 17:24N 01°13' E 103°49'0 0.0
2015-Aug-26 16:24N 01°13' E 103°49'0 0.1
2015-Aug-26 15:24N 01°13' E 103°49'0 0.1
2015-Aug-26 14:30N 01°13' E 103°49'0 0.2
2015-Aug-26 13:24N 01°13' E 103°49'0 0.1
2015-Aug-26 12:30N 01°13' E 103°49'0 0.0
2015-Aug-26 11:30N 01°13' E 103°49'0 0.1
2015-Aug-26 10:30N 01°13' E 103°49'0 0.1
2015-Aug-26 09:24N 01°13' E 103°49'0 0.0
2015-Aug-26 08:16N 01°13' E 103°49'0 0.1
2015-Aug-26 07:24N 01°13' E 103°49'0 0.1
2015-Aug-26 06:30N 01°13' E 103°49'0 0.1
2015-Aug-26 05:30N 01°13' E 103°49'0 0.0
2015-Aug-26 04:30N 01°13' E 103°49'0 0.1
2015-Aug-26 03:30N 01°13' E 103°49'0 0.1
2015-Aug-26 02:33N 01°13' E 103°49'0 0.1
2015-Aug-26 01:33N 01°13' E 103°49'0 0.0
2015-Aug-26 00:33N 01°13' E 103°49'0 0.1
2015-Aug-25 23:16N 01°13' E 103°49'0 0.0
2015-Aug-25 22:28N 01°13' E 103°49'0 0.1
2015-Aug-25 21:22N 01°13' E 103°49'0 0.1
2015-Aug-25 20:30N 01°13' E 103°49'0 0.0
2015-Aug-25 19:28N 01°13' E 103°49'0 0.0
2015-Aug-25 18:28N 01°13' E 103°49'0 0.0
2015-Aug-25 17:22N 01°13' E 103°49'0 0.1
2015-Aug-25 16:28N 01°13' E 103°49'0 0.1
2015-Aug-25 15:24N 01°13' E 103°49'0 0.1
2015-Aug-25 14:28N 01°13' E 103°49'0 0.2
2015-Aug-25 13:28N 01°13' E 103°49'0 0.1
2015-Aug-25 12:28N 01°13' E 103°49'0 0.1
2015-Aug-25 11:28N 01°13' E 103°49'0 0.0
2015-Aug-25 10:28N 01°13' E 103°49'0 0.0
2015-Aug-25 09:10N 01°13' E 103°49'0 0.2
2015-Aug-25 08:31N 01°13' E 103°49'0 0.1
2015-Aug-25 07:25N 01°13' E 103°49'0 0.1
2015-Aug-25 06:28N 01°13' E 103°49'0 0.0
2015-Aug-25 05:28N 01°13' E 103°49'0 0.1
2015-Aug-25 04:28N 01°13' E 103°49'1 1.4
2015-Aug-25 03:33N 01°12' E 103°48'0 0.0
2015-Aug-25 02:33N 01°12' E 103°48'0 0.0
2015-Aug-25 01:33N 01°12' E 103°48'0 0.0
2015-Aug-25 00:33N 01°12' E 103°48'0 0.0
2015-Aug-24 23:33N 01°12' E 103°48'0 0.0
2015-Aug-24 22:33N 01°12' E 103°48'0 0.0
2015-Aug-24 21:33N 01°12' E 103°48'0 0.0
2015-Aug-24 20:33N 01°12' E 103°48'0 0.0
2015-Aug-24 19:33N 01°12' E 103°48'0 0.0
2015-Aug-24 18:33N 01°12' E 103°48'0 0.0
2015-Aug-24 17:33N 01°12' E 103°48'0 0.0
2015-Aug-24 16:23N 01°12' E 103°48'0 0.0
2015-Aug-24 15:27N 01°12' E 103°48'0 0.0
2015-Aug-24 14:33N 01°12' E 103°48'0 0.0
2015-Aug-24 13:33N 01°12' E 103°48'0 0.0
2015-Aug-24 12:33N 01°12' E 103°48'0 0.0
2015-Aug-24 11:07N 01°12' E 103°48'1 1.5
2015-Aug-24 10:33N 01°12' E 103°48'2 1.7
2015-Aug-24 09:27N 01°13' E 103°49'0 0.0
2015-Aug-24 06:27N 01°13' E 103°49'0 0.0
2015-Aug-24 05:27N 01°13' E 103°49'0 0.1
2015-Aug-24 04:29N 01°13' E 103°49'0 0.1
2015-Aug-24 03:28N 01°13' E 103°49'0 0.0
2015-Aug-24 02:04N 01°13' E 103°49'0 0.1
2015-Aug-24 01:29N 01°13' E 103°49'0 0.0
2015-Aug-24 00:29N 01°13' E 103°49'0 0.0
2015-Aug-23 23:22N 01°13' E 103°49'0 0.1
2015-Aug-23 22:28N 01°13' E 103°49'0 0.1
2015-Aug-23 21:11N 01°13' E 103°49'0 0.1
2015-Aug-23 20:28N 01°13' E 103°49'0 0.1
2015-Aug-23 19:28N 01°13' E 103°49'0 0.0
2015-Aug-23 18:28N 01°13' E 103°49'0 0.0
2015-Aug-23 17:28N 01°13' E 103°49'0 0.0
2015-Aug-23 16:12N 01°13' E 103°49'0 0.0
2015-Aug-23 15:30N 01°13' E 103°49'0 0.0
2015-Aug-23 14:15N 01°13' E 103°49'2 2.7
2015-Aug-23 13:33N 01°12' E 103°51'8 8.3
2015-Aug-23 12:33N 01°16' E 103°58'  
Track history (hours):
 
Tides and Currents Weather Stations Pressure Air Temp Water Temp Dewpoint Dewpoint Depression Visibility Wind Speed Wind Dir Waves Ship Positions

Port Stanley

Last reported at 2015-Aug-31 11:33 UTC. Time now 2015-Sep-02 12:52 UTC.
Position N 01°16' E 104°09'.

Length 183 m; draft 8.4 m.

MMSI: 538090299.

Date/timePositionNaut miles runAvg speedWind from/ knotsBaromVisibWave heightAir tempDewpointWater temp
2015-Aug-31 11:33N 01°16' E 104°09'1211.6
2015-Aug-31 10:33N 01°14' E 103°57'8 8.3
2015-Aug-31 09:33N 01°13' E 103°49'2 1.6
2015-Aug-31 08:30N 01°14' E 103°48'0 0.1
2015-Aug-31 07:30N 01°14' E 103°48'0 0.1
2015-Aug-31 06:30N 01°14' E 103°48'0 0.1
2015-Aug-31 05:30N 01°14' E 103°48'0 0.0
2015-Aug-31 04:30N 01°14' E 103°48'0 0.0
2015-Aug-31 03:30N 01°14' E 103°48'0 0.0
2015-Aug-31 02:30N 01°14' E 103°48'0 0.0
2015-Aug-31 01:30N 01°14' E 103°48'0 0.1
2015-Aug-31 00:30N 01°14' E 103°48'0 0.1
2015-Aug-30 23:30N 01°14' E 103°48'0 0.0
2015-Aug-30 22:18N 01°14' E 103°48'0 0.0
2015-Aug-30 21:30N 01°14' E 103°48'0 0.0
2015-Aug-30 20:34N 01°14' E 103°48'2 1.8
2015-Aug-30 19:33N 01°15' E 103°46'8 7.4
2015-Aug-30 18:32N 01°16' E 103°39'3 3.2
2015-Aug-30 17:32N 01°18' E 103°41'0 0.0
2015-Aug-30 16:07N 01°18' E 103°41'0 0.0
2015-Aug-30 15:33N 01°18' E 103°41'0 0.0
2015-Aug-30 14:09N 01°18' E 103°41'0 0.0
2015-Aug-30 13:31N 01°18' E 103°41'0 0.0
2015-Aug-30 12:16N 01°18' E 103°41'0 0.0
2015-Aug-30 11:25N 01°18' E 103°41'0 0.0
2015-Aug-30 10:19N 01°18' E 103°41'0 0.0
2015-Aug-30 09:22N 01°18' E 103°41'0 0.0
2015-Aug-30 08:32N 01°18' E 103°41'0 0.0
2015-Aug-30 07:31N 01°18' E 103°41'0 0.0
2015-Aug-30 06:27N 01°18' E 103°41'0 0.0
2015-Aug-30 04:21N 01°18' E 103°41'0 0.0
2015-Aug-29 20:33N 01°18' E 103°41'0 0.0
2015-Aug-29 09:33N 01°18' E 103°41'3 3.4
2015-Aug-29 08:33N 01°15' E 103°43'6 5.9
2015-Aug-29 07:33N 01°13' E 103°49'0 0.1
2015-Aug-29 06:33N 01°13' E 103°49'0 0.1
2015-Aug-29 05:16N 01°13' E 103°49'0 0.0
2015-Aug-29 04:30N 01°13' E 103°49'0 0.1
2015-Aug-29 03:18N 01°13' E 103°49'0 0.1
2015-Aug-29 02:28N 01°13' E 103°49'0 0.1
2015-Aug-29 01:30N 01°13' E 103°49'0 0.1
2015-Aug-29 00:28N 01°13' E 103°49'0 0.1
2015-Aug-28 23:17N 01°13' E 103°49'0 0.1
2015-Aug-28 22:29N 01°13' E 103°49'0 0.0
2015-Aug-28 21:29N 01°13' E 103°49'0 0.1
2015-Aug-28 20:29N 01°13' E 103°49'0 0.1
2015-Aug-28 19:25N 01°13' E 103°49'0 0.0
2015-Aug-28 18:29N 01°13' E 103°49'0 0.1
2015-Aug-28 17:31N 01°13' E 103°49'0 0.1
2015-Aug-28 16:11N 01°13' E 103°49'0 0.1
2015-Aug-28 15:19N 01°13' E 103°49'0 0.0
2015-Aug-28 14:29N 01°13' E 103°49'0 0.1
2015-Aug-28 13:29N 01°13' E 103°49'0 0.1
2015-Aug-28 12:31N 01°13' E 103°49'0 0.1
2015-Aug-28 11:31N 01°13' E 103°49'0 0.1
2015-Aug-28 10:31N 01°13' E 103°49'0 0.1
2015-Aug-28 09:23N 01°13' E 103°49'0 0.0
2015-Aug-28 08:29N 01°13' E 103°49'0 0.0
2015-Aug-28 07:31N 01°13' E 103°49'0 0.0
2015-Aug-28 06:17N 01°13' E 103°49'0 0.1
2015-Aug-28 05:31N 01°13' E 103°49'0 0.0
2015-Aug-28 04:29N 01°13' E 103°49'0 0.1
2015-Aug-28 03:23N 01°13' E 103°49'0 0.1
2015-Aug-28 02:29N 01°13' E 103°49'0 0.1
2015-Aug-28 01:17N 01°13' E 103°49'0 0.1
2015-Aug-28 00:26N 01°13' E 103°49'0 0.1
2015-Aug-27 23:29N 01°13' E 103°49'0 0.1
2015-Aug-27 22:23N 01°13' E 103°49'0 0.1
2015-Aug-27 21:32N 01°13' E 103°49'0 0.0
2015-Aug-27 20:29N 01°13' E 103°49'0 0.0
2015-Aug-27 19:32N 01°13' E 103°49'0 0.0
2015-Aug-27 18:29N 01°13' E 103°49'0 0.1
2015-Aug-27 17:29N 01°13' E 103°49'0 0.0
2015-Aug-27 16:29N 01°13' E 103°49'0 0.0
2015-Aug-27 15:32N 01°13' E 103°49'0 0.2
2015-Aug-27 14:32N 01°13' E 103°49'0 0.1
2015-Aug-27 13:32N 01°13' E 103°49'0 0.1
2015-Aug-27 12:29N 01°13' E 103°49'0 0.1
2015-Aug-27 11:33N 01°13' E 103°49'0 0.0
2015-Aug-27 10:29N 01°13' E 103°49'0 0.0
2015-Aug-27 09:29N 01°13' E 103°49'0 0.1
2015-Aug-27 08:29N 01°13' E 103°49'0 0.0
2015-Aug-27 07:29N 01°13' E 103°49'0 0.1
2015-Aug-27 06:29N 01°13' E 103°49'0 0.0
2015-Aug-27 05:21N 01°13' E 103°49'0 0.1
2015-Aug-27 04:17N 01°13' E 103°49'0 0.2
2015-Aug-27 03:29N 01°13' E 103°49'0 0.0
2015-Aug-26 22:30N 01°13' E 103°49'0 0.1
2015-Aug-26 20:15N 01°13' E 103°49'0 0.0
2015-Aug-26 17:24N 01°13' E 103°49'0 0.0
2015-Aug-26 16:24N 01°13' E 103°49'0 0.1
2015-Aug-26 15:24N 01°13' E 103°49'0 0.1
2015-Aug-26 14:30N 01°13' E 103°49'0 0.2
2015-Aug-26 13:24N 01°13' E 103°49'0 0.1
2015-Aug-26 12:30N 01°13' E 103°49'0 0.0
2015-Aug-26 11:30N 01°13' E 103°49'0 0.1
2015-Aug-26 10:30N 01°13' E 103°49'0 0.1
2015-Aug-26 09:24N 01°13' E 103°49'0 0.0
2015-Aug-26 08:16N 01°13' E 103°49'0 0.1
2015-Aug-26 07:24N 01°13' E 103°49'0 0.1
2015-Aug-26 06:30N 01°13' E 103°49'0 0.1
2015-Aug-26 05:30N 01°13' E 103°49'0 0.0
2015-Aug-26 04:30N 01°13' E 103°49'0 0.1
2015-Aug-26 03:30N 01°13' E 103°49'0 0.1
2015-Aug-26 02:33N 01°13' E 103°49'0 0.1
2015-Aug-26 01:33N 01°13' E 103°49'0 0.0
2015-Aug-26 00:33N 01°13' E 103°49'0 0.1
2015-Aug-25 23:16N 01°13' E 103°49'0 0.0
2015-Aug-25 22:28N 01°13' E 103°49'0 0.1
2015-Aug-25 21:22N 01°13' E 103°49'0 0.1
2015-Aug-25 20:30N 01°13' E 103°49'0 0.0
2015-Aug-25 19:28N 01°13' E 103°49'0 0.0
2015-Aug-25 18:28N 01°13' E 103°49'0 0.0
2015-Aug-25 17:22N 01°13' E 103°49'0 0.1
2015-Aug-25 16:28N 01°13' E 103°49'0 0.1
2015-Aug-25 15:24N 01°13' E 103°49'0 0.1
2015-Aug-25 14:28N 01°13' E 103°49'0 0.2
2015-Aug-25 13:28N 01°13' E 103°49'0 0.1
2015-Aug-25 12:28N 01°13' E 103°49'0 0.1
2015-Aug-25 11:28N 01°13' E 103°49'0 0.0
2015-Aug-25 10:28N 01°13' E 103°49'0 0.0
2015-Aug-25 09:10N 01°13' E 103°49'0 0.2
2015-Aug-25 08:31N 01°13' E 103°49'0 0.1
2015-Aug-25 07:25N 01°13' E 103°49'0 0.1
2015-Aug-25 06:28N 01°13' E 103°49'0 0.0
2015-Aug-25 05:28N 01°13' E 103°49'0 0.1
2015-Aug-25 04:28N 01°13' E 103°49'1 1.4
2015-Aug-25 03:33N 01°12' E 103°48'0 0.0
2015-Aug-25 02:33N 01°12' E 103°48'0 0.0
2015-Aug-25 01:33N 01°12' E 103°48'0 0.0
2015-Aug-25 00:33N 01°12' E 103°48'0 0.0
2015-Aug-24 23:33N 01°12' E 103°48'0 0.0
2015-Aug-24 22:33N 01°12' E 103°48'0 0.0
2015-Aug-24 21:33N 01°12' E 103°48'0 0.0
2015-Aug-24 20:33N 01°12' E 103°48'0 0.0
2015-Aug-24 19:33N 01°12' E 103°48'0 0.0
2015-Aug-24 18:33N 01°12' E 103°48'0 0.0
2015-Aug-24 17:33N 01°12' E 103°48'0 0.0
2015-Aug-24 16:23N 01°12' E 103°48'0 0.0
2015-Aug-24 15:27N 01°12' E 103°48'0 0.0
2015-Aug-24 14:33N 01°12' E 103°48'0 0.0
2015-Aug-24 13:33N 01°12' E 103°48'0 0.0
2015-Aug-24 12:33N 01°12' E 103°48'0 0.0
2015-Aug-24 11:07N 01°12' E 103°48'1 1.5
2015-Aug-24 10:33N 01°12' E 103°48'2 1.7
2015-Aug-24 09:27N 01°13' E 103°49'0 0.0
2015-Aug-24 06:27N 01°13' E 103°49'0 0.0
2015-Aug-24 05:27N 01°13' E 103°49'0 0.1
2015-Aug-24 04:29N 01°13' E 103°49'0 0.1
2015-Aug-24 03:28N 01°13' E 103°49'0 0.0
2015-Aug-24 02:04N 01°13' E 103°49'0 0.1
2015-Aug-24 01:29N 01°13' E 103°49'0 0.0
2015-Aug-24 00:29N 01°13' E 103°49'0 0.0
2015-Aug-23 23:22N 01°13' E 103°49'0 0.1
2015-Aug-23 22:28N 01°13' E 103°49'0 0.1
2015-Aug-23 21:11N 01°13' E 103°49'0 0.1
2015-Aug-23 20:28N 01°13' E 103°49'0 0.1
2015-Aug-23 19:28N 01°13' E 103°49'0 0.0
2015-Aug-23 18:28N 01°13' E 103°49'0 0.0
2015-Aug-23 17:28N 01°13' E 103°49'0 0.0
2015-Aug-23 16:12N 01°13' E 103°49'0 0.0
2015-Aug-23 15:30N 01°13' E 103°49'0 0.0
2015-Aug-23 14:15N 01°13' E 103°49'2 2.7
2015-Aug-23 13:33N 01°12' E 103°51'8 8.3
2015-Aug-23 12:33N 01°16' E 103°58'  

Dump ship's entire track history